createdAt,value
2023-03-01T00:01:34.391Z,15.02
2023-03-01T00:04:02.390Z,12.40
2023-03-01T00:06:30.499Z,13.82
2023-03-01T00:08:58.525Z,13.32
2023-03-01T00:11:31.125Z,13.23
2023-03-01T00:13:59.961Z,12.60
2023-03-01T00:16:29.320Z,12.90
2023-03-01T00:18:57.648Z,13.75
2023-03-01T00:21:25.687Z,15.13
2023-03-01T00:23:53.600Z,16.05
2023-03-01T00:26:22.500Z,15.70
2023-03-01T00:28:50.685Z,15.82
2023-03-01T00:31:20.220Z,18.13
2023-03-01T00:33:48.460Z,16.88
2023-03-01T00:36:17.514Z,17.20
2023-03-01T00:38:46.834Z,16.83
2023-03-01T00:41:16.022Z,17.08
2023-03-01T00:43:44.148Z,16.58
2023-03-01T00:46:13.104Z,16.67
2023-03-01T00:48:41.143Z,15.65
2023-03-01T00:51:12.023Z,16.13
2023-03-01T00:53:40.213Z,16.50
2023-03-01T00:56:08.669Z,16.00
2023-03-01T00:58:36.680Z,16.27
2023-03-01T01:01:30.991Z,15.13
2023-03-01T01:04:00.912Z,15.75
2023-03-01T01:06:30.822Z,14.88
2023-03-01T01:09:00.039Z,15.90
2023-03-01T01:11:29.353Z,13.65
2023-03-01T01:13:57.942Z,15.32
2023-03-01T01:16:26.841Z,14.57
2023-03-01T01:18:55.048Z,14.00
2023-03-01T01:21:24.011Z,14.93
2023-03-01T01:23:52.322Z,14.65
2023-03-01T01:26:21.645Z,15.88
2023-03-01T01:28:51.621Z,16.00
2023-03-01T01:31:20.188Z,15.57
2023-03-01T01:33:48.213Z,15.82
2023-03-01T01:36:16.103Z,15.38
2023-03-01T01:38:43.891Z,13.98
2023-03-01T01:41:15.481Z,13.27
2023-03-01T01:43:48.323Z,14.23
2023-03-01T01:46:19.210Z,14.32
2023-03-01T01:48:49.859Z,13.55
2023-03-01T01:51:22.749Z,14.27
2023-03-01T01:53:53.205Z,13.63
2023-03-01T01:56:21.915Z,14.55
2023-03-01T01:58:49.984Z,14.55
2023-03-01T02:01:18.110Z,14.43
2023-03-01T02:03:47.988Z,13.32
2023-03-01T02:06:30.278Z,14.05
2023-03-01T02:09:08.420Z,14.88
2023-03-01T02:11:38.636Z,15.40
2023-03-01T02:14:06.941Z,14.98
2023-03-01T02:16:35.497Z,15.68
2023-03-01T02:19:05.916Z,14.45
2023-03-01T02:21:33.709Z,14.73
2023-03-01T02:24:07.411Z,15.23
2023-03-01T02:26:56.139Z,14.75
2023-03-01T02:29:28.438Z,15.35
2023-03-01T02:31:58.531Z,15.20
2023-03-01T02:34:28.098Z,15.35
2023-03-01T02:36:58.080Z,14.63
2023-03-01T02:39:28.456Z,15.93
2023-03-01T02:41:57.965Z,14.45
2023-03-01T02:44:25.817Z,13.98
2023-03-01T02:46:55.251Z,16.15
2023-03-01T02:49:27.566Z,15.13
2023-03-01T02:51:58.571Z,15.57
2023-03-01T02:54:29.929Z,16.33
2023-03-01T02:56:57.966Z,15.18
2023-03-01T02:59:28.185Z,15.73
2023-03-01T03:01:56.096Z,15.10
2023-03-01T03:04:24.352Z,14.73
2023-03-01T03:06:52.543Z,14.80
2023-03-01T03:09:20.894Z,15.00
2023-03-01T03:11:48.756Z,15.23
2023-03-01T03:14:17.383Z,14.20
2023-03-01T03:16:49.390Z,15.50
2023-03-01T03:19:19.673Z,14.20
2023-03-01T03:21:47.548Z,14.40
2023-03-01T03:24:15.386Z,15.00
2023-03-01T03:26:43.227Z,15.10
2023-03-01T03:29:11.055Z,13.93
2023-03-01T03:31:38.873Z,14.10
2023-03-01T03:34:06.702Z,15.40
2023-03-01T03:36:34.550Z,16.55
2023-03-01T03:39:02.414Z,15.93
2023-03-01T03:41:30.208Z,14.90
2023-03-01T03:43:58.102Z,15.52
2023-03-01T03:46:26.377Z,14.65
2023-03-01T03:48:54.181Z,14.13
2023-03-01T03:51:23.737Z,15.60
2023-03-01T03:53:51.664Z,14.82
2023-03-01T03:56:19.476Z,14.02
2023-03-01T03:58:47.273Z,13.52
2023-03-01T04:01:15.085Z,13.95
2023-03-01T04:03:47.838Z,15.38
2023-03-01T04:06:16.469Z,13.93
2023-03-01T04:08:44.290Z,14.07
2023-03-01T04:11:28.352Z,14.60
2023-03-01T04:13:58.027Z,14.13
2023-03-01T04:16:26.410Z,15.63
2023-03-01T04:18:54.571Z,15.20
2023-03-01T04:21:22.858Z,16.58
2023-03-01T04:23:53.532Z,16.55
2023-03-01T04:26:21.958Z,16.75
2023-03-01T04:28:51.424Z,17.67
2023-03-01T04:31:22.169Z,18.27
2023-03-01T04:33:54.504Z,17.65
2023-03-01T04:36:24.319Z,18.77
2023-03-01T04:38:52.959Z,17.42
2023-03-01T04:41:22.510Z,19.00
2023-03-01T04:43:50.457Z,17.95
2023-03-01T04:46:19.752Z,17.50
2023-03-01T04:48:48.445Z,17.88
2023-03-01T04:51:16.972Z,16.10
2023-03-01T04:53:45.147Z,16.45
2023-03-01T04:56:14.841Z,16.52
2023-03-01T04:58:42.812Z,16.58
2023-03-01T05:01:16.401Z,16.58
2023-03-01T05:03:48.513Z,17.20
2023-03-01T05:06:16.680Z,16.58
2023-03-01T05:08:45.103Z,18.05
2023-03-01T05:11:13.566Z,18.65
2023-03-01T05:13:41.803Z,17.27
2023-03-01T05:16:13.535Z,17.38
2023-03-01T05:18:42.349Z,16.45
2023-03-01T05:21:17.074Z,17.67
2023-03-01T05:23:45.434Z,18.40
2023-03-01T05:26:27.482Z,17.30
2023-03-01T05:28:59.757Z,18.37
2023-03-01T05:31:28.064Z,19.13
2023-03-01T05:33:55.868Z,17.95
2023-03-01T05:36:23.614Z,17.42
2023-03-01T05:38:52.062Z,18.58
2023-03-01T05:41:19.883Z,18.83
2023-03-01T05:43:47.620Z,19.52
2023-03-01T05:46:16.352Z,19.02
2023-03-01T05:48:44.767Z,18.80
2023-03-01T05:51:13.181Z,19.58
2023-03-01T05:53:41.029Z,21.38
2023-03-01T05:56:09.195Z,21.55
2023-03-01T05:58:37.155Z,21.02
2023-03-01T06:01:05.009Z,19.95
2023-03-01T06:03:32.840Z,17.85
2023-03-01T06:06:00.770Z,18.85
2023-03-01T06:08:28.650Z,19.83
2023-03-01T06:10:56.853Z,20.88
2023-03-01T06:13:24.923Z,19.00
2023-03-01T06:15:53.236Z,19.50
2023-03-01T06:18:21.157Z,20.00
2023-03-01T06:20:54.646Z,20.35
2023-03-01T06:23:22.947Z,20.33
2023-03-01T06:25:50.847Z,20.80
2023-03-01T06:28:18.799Z,19.73
2023-03-01T06:30:47.155Z,21.25
2023-03-01T06:33:15.075Z,21.35
2023-03-01T06:35:42.927Z,21.30
2023-03-01T06:38:10.849Z,21.92
2023-03-01T06:40:38.683Z,20.73
2023-03-01T06:43:07.499Z,20.42
2023-03-01T06:45:35.558Z,19.88
2023-03-01T06:48:07.130Z,21.77
2023-03-01T06:50:35.786Z,21.58
2023-03-01T06:53:04.205Z,20.83
2023-03-01T06:55:32.375Z,22.70
2023-03-01T06:58:00.983Z,21.60
2023-03-01T07:00:29.379Z,20.08
2023-03-01T07:02:59.897Z,23.25
2023-03-01T07:05:27.831Z,22.92
2023-03-01T07:07:57.226Z,23.92
2023-03-01T07:10:25.412Z,23.08
2023-03-01T07:12:56.113Z,22.60
2023-03-01T07:15:23.904Z,22.60
2023-03-01T07:17:51.771Z,22.33
2023-03-01T07:20:20.013Z,22.60
2023-03-01T07:22:47.770Z,22.00
2023-03-01T07:25:15.654Z,21.35
2023-03-01T07:27:43.588Z,22.13
2023-03-01T07:30:11.809Z,22.85
2023-03-01T07:32:39.758Z,21.70
2023-03-01T07:35:07.896Z,19.25
2023-03-01T07:37:35.757Z,21.10
2023-03-01T07:40:03.706Z,23.15
2023-03-01T07:42:31.763Z,21.75
2023-03-01T07:44:59.580Z,23.00
2023-03-01T07:47:27.516Z,22.20
2023-03-01T07:49:55.316Z,24.65
2023-03-01T07:52:23.209Z,22.65
2023-03-01T07:54:51.082Z,22.02
2023-03-01T07:57:19.007Z,22.58
2023-03-01T07:59:46.897Z,23.98
2023-03-01T08:02:16.132Z,21.92
2023-03-01T08:04:44.085Z,22.40
2023-03-01T08:07:11.907Z,23.95
2023-03-01T08:09:39.673Z,22.73
2023-03-01T08:12:07.611Z,22.08
2023-03-01T08:14:35.429Z,21.20
2023-03-01T08:17:04.183Z,20.67
2023-03-01T08:19:32.340Z,20.63
2023-03-01T08:22:00.921Z,20.25
2023-03-01T08:24:28.967Z,21.27
2023-03-01T08:26:57.140Z,21.15
2023-03-01T08:29:25.744Z,21.45
2023-03-01T08:31:53.698Z,21.90
2023-03-01T08:34:21.591Z,20.60
2023-03-01T08:36:51.176Z,20.25
2023-03-01T08:39:20.273Z,20.55
2023-03-01T08:41:48.413Z,20.00
2023-03-01T08:44:21.864Z,20.15
2023-03-01T08:46:51.046Z,20.52
2023-03-01T08:49:19.879Z,18.70
2023-03-01T08:51:48.371Z,20.23
2023-03-01T08:54:21.384Z,18.58
2023-03-01T08:56:49.430Z,18.55
2023-03-01T08:59:18.427Z,18.85
2023-03-01T09:01:46.272Z,17.75
2023-03-01T09:04:14.842Z,16.55
2023-03-01T09:06:43.126Z,17.17
2023-03-01T09:09:18.134Z,15.85
2023-03-01T09:11:51.096Z,17.27
2023-03-01T09:14:18.953Z,16.83
2023-03-01T09:16:47.594Z,17.30
2023-03-01T09:19:15.777Z,17.10
2023-03-01T09:21:53.022Z,16.33
2023-03-01T09:24:22.202Z,16.45
2023-03-01T09:26:51.713Z,15.90
2023-03-01T09:29:19.788Z,14.45
2023-03-01T09:31:47.637Z,15.18
2023-03-01T09:34:17.192Z,16.10
2023-03-01T09:36:45.076Z,17.60
2023-03-01T09:39:12.998Z,21.38
2023-03-01T09:41:47.103Z,21.35
2023-03-01T09:44:23.138Z,20.00
2023-03-01T09:46:52.238Z,20.98
2023-03-01T09:49:21.880Z,20.95
2023-03-01T09:51:56.237Z,20.52
2023-03-01T09:54:24.220Z,19.38
2023-03-01T09:56:59.111Z,19.67
2023-03-01T09:59:34.993Z,18.45
2023-03-01T10:02:13.156Z,20.10
2023-03-01T10:04:47.873Z,21.13
2023-03-01T10:07:27.262Z,21.45
2023-03-01T10:09:55.149Z,20.67
2023-03-01T10:12:26.189Z,19.58
2023-03-01T10:15:11.700Z,21.70
2023-03-01T10:17:51.162Z,21.05
2023-03-01T10:20:23.427Z,21.50
2023-03-01T10:22:53.383Z,22.73
2023-03-01T10:25:29.509Z,20.80
2023-03-01T10:28:03.555Z,21.48
2023-03-01T10:30:39.537Z,21.95
2023-03-01T10:33:15.578Z,21.17
2023-03-01T10:35:43.432Z,21.20
2023-03-01T10:38:12.672Z,21.48
2023-03-01T10:40:55.908Z,20.85
2023-03-01T10:43:23.965Z,21.10
2023-03-01T10:45:52.376Z,19.73
2023-03-01T10:48:24.417Z,21.50
2023-03-01T10:51:06.204Z,22.05
2023-03-01T10:53:36.209Z,23.38
2023-03-01T10:56:06.398Z,21.85
2023-03-01T10:58:35.295Z,21.05
2023-03-01T11:01:04.629Z,20.48
2023-03-01T11:03:34.303Z,20.88
2023-03-01T11:06:14.140Z,20.70
2023-03-01T11:08:49.073Z,23.08
2023-03-01T11:11:20.264Z,21.77
2023-03-01T11:13:54.308Z,20.55
2023-03-01T11:16:30.459Z,20.02
2023-03-01T11:19:02.938Z,19.02
2023-03-01T11:21:32.973Z,19.35
2023-03-01T11:24:02.337Z,19.10
2023-03-01T11:26:32.147Z,19.83
2023-03-01T11:29:02.337Z,19.27
2023-03-01T11:31:30.889Z,17.85
2023-03-01T11:34:01.478Z,17.10
2023-03-01T11:36:35.660Z,15.82
2023-03-01T11:39:23.415Z,16.85
2023-03-01T11:41:54.668Z,15.80
2023-03-01T11:44:25.811Z,18.13
2023-03-01T11:46:56.784Z,17.20
2023-03-01T11:49:43.233Z,17.23
2023-03-01T11:52:20.256Z,17.15
2023-03-01T11:54:53.939Z,18.00
2023-03-01T11:57:43.418Z,18.13
2023-03-01T12:00:20.120Z,18.10
2023-03-01T12:03:09.545Z,17.75
2023-03-01T12:05:48.112Z,18.38
2023-03-01T12:08:37.575Z,17.10
2023-03-01T12:11:10.982Z,18.30
2023-03-01T12:16:13.113Z,18.00
2023-03-01T12:18:47.318Z,15.63
2023-03-01T12:21:41.499Z,14.70
2023-03-01T12:24:18.384Z,13.40
2023-03-01T12:27:10.225Z,13.32
2023-03-01T12:29:48.520Z,12.73
2023-03-01T12:32:28.285Z,11.50
2023-03-01T12:35:09.843Z,10.20
2023-03-01T12:37:48.456Z,8.52
2023-03-01T12:40:22.537Z,8.30
2023-03-01T12:42:58.610Z,7.05
2023-03-01T12:45:36.663Z,7.95
2023-03-01T12:48:10.338Z,8.82
2023-03-01T12:51:07.490Z,7.15
2023-03-01T12:53:40.734Z,6.60
2023-03-01T12:56:10.883Z,6.22
2023-03-01T12:58:49.986Z,7.07
2023-03-01T13:01:36.700Z,7.22
2023-03-01T13:04:12.317Z,7.07
2023-03-01T13:06:54.403Z,7.03
2023-03-01T13:09:44.633Z,6.82
2023-03-01T13:12:31.247Z,7.68
2023-03-01T13:14:59.030Z,7.07
2023-03-01T13:17:34.512Z,7.57
2023-03-01T13:20:02.381Z,6.70
2023-03-01T13:22:38.077Z,6.60
2023-03-01T13:25:20.233Z,6.30
2023-03-01T13:27:48.642Z,5.55
2023-03-01T13:30:40.180Z,6.13
2023-03-01T13:33:26.524Z,6.30
2023-03-01T13:35:55.555Z,5.60
2023-03-01T13:38:42.169Z,5.60
2023-03-01T13:41:10.162Z,7.18
2023-03-01T13:43:38.911Z,5.93
2023-03-01T13:46:12.204Z,5.97
2023-03-01T13:51:12.581Z,5.57
2023-03-01T13:53:45.748Z,4.78
2023-03-01T13:56:21.910Z,5.35
2023-03-01T13:58:51.422Z,5.40
2023-03-01T14:01:24.228Z,5.32
2023-03-01T14:03:52.229Z,6.03
2023-03-01T14:06:24.247Z,5.55
2023-03-01T14:08:53.282Z,5.88
2023-03-01T14:11:35.183Z,6.00
2023-03-01T14:14:12.307Z,6.03
2023-03-01T14:17:05.055Z,5.55
2023-03-01T14:19:34.251Z,6.07
2023-03-01T14:22:14.456Z,5.88
2023-03-01T14:24:46.385Z,6.15
2023-03-01T14:27:15.253Z,5.38
2023-03-01T14:29:43.194Z,6.00
2023-03-01T14:32:21.455Z,5.50
2023-03-01T14:34:51.336Z,6.32
2023-03-01T14:37:24.999Z,6.57
2023-03-01T14:39:53.320Z,6.57
2023-03-01T14:42:25.222Z,7.10
2023-03-01T14:44:54.587Z,6.10
2023-03-01T14:47:28.611Z,6.28
2023-03-01T14:50:09.016Z,5.95
2023-03-01T14:52:39.593Z,6.70
2023-03-01T14:55:14.640Z,6.80
2023-03-01T14:57:45.069Z,7.05
2023-03-01T15:00:17.849Z,5.82
2023-03-01T15:02:45.759Z,5.40
2023-03-01T15:05:15.494Z,7.03
2023-03-01T15:07:49.969Z,6.50
2023-03-01T15:10:22.179Z,7.20
2023-03-01T15:12:50.313Z,6.50
2023-03-01T15:15:22.745Z,6.18
2023-03-01T15:17:56.265Z,6.30
2023-03-01T15:22:55.481Z,5.03
2023-03-01T15:25:24.917Z,6.82
2023-03-01T15:27:54.056Z,7.85
2023-03-01T15:30:29.562Z,5.82
2023-03-01T15:33:20.457Z,5.70
2023-03-01T15:35:54.702Z,5.15
2023-03-01T15:38:29.073Z,6.32
2023-03-01T15:40:58.157Z,5.70
2023-03-01T15:43:39.372Z,6.22
2023-03-01T15:46:07.295Z,7.50
2023-03-01T15:48:35.181Z,7.00
2023-03-01T15:51:03.428Z,5.90
2023-03-01T15:53:32.006Z,7.28
2023-03-01T15:56:00.033Z,8.02
2023-03-01T15:58:27.890Z,7.55
2023-03-01T16:01:02.057Z,8.20
2023-03-01T16:03:30.843Z,7.80
2023-03-01T16:05:58.642Z,9.10
2023-03-01T16:08:26.444Z,7.57
2023-03-01T16:10:55.622Z,8.25
2023-03-01T16:13:23.748Z,9.63
2023-03-01T16:15:52.485Z,8.18
2023-03-01T16:18:20.284Z,8.57
2023-03-01T16:20:49.913Z,7.22
2023-03-01T16:23:17.766Z,7.90
2023-03-01T16:25:47.066Z,8.02
2023-03-01T16:28:29.259Z,9.45
2023-03-01T16:30:58.117Z,8.80
2023-03-01T16:33:33.350Z,8.63
2023-03-01T16:36:13.210Z,7.70
2023-03-01T16:38:41.062Z,9.35
2023-03-01T16:41:13.587Z,8.63
2023-03-01T16:43:43.178Z,10.23
2023-03-01T16:46:16.267Z,9.48
2023-03-01T16:48:47.375Z,9.60
2023-03-01T16:51:17.234Z,9.63
2023-03-01T16:53:47.097Z,9.75
2023-03-01T16:56:15.414Z,9.10
2023-03-01T16:58:43.604Z,9.80
2023-03-01T17:01:25.085Z,10.23
2023-03-01T17:03:53.777Z,9.68
2023-03-01T17:06:25.831Z,10.32
2023-03-01T17:08:57.543Z,9.45
2023-03-01T17:11:30.141Z,9.48
2023-03-01T17:14:01.758Z,9.70
2023-03-01T17:16:29.654Z,11.27
2023-03-01T17:18:58.471Z,9.75
2023-03-01T17:21:32.109Z,10.70
2023-03-01T17:24:02.202Z,10.33
2023-03-01T17:26:30.679Z,10.35
2023-03-01T17:29:02.227Z,10.32
2023-03-01T17:31:31.416Z,9.82
2023-03-01T17:34:05.093Z,9.20
2023-03-01T17:36:34.607Z,10.20
2023-03-01T17:39:02.598Z,10.00
2023-03-01T17:41:32.842Z,9.80
2023-03-01T17:44:01.072Z,9.18
2023-03-01T17:46:29.139Z,9.90
2023-03-01T17:48:57.243Z,9.55
2023-03-01T17:51:25.184Z,10.13
2023-03-01T17:53:53.007Z,9.98
2023-03-01T17:56:20.857Z,9.52
2023-03-01T17:58:48.694Z,9.60
2023-03-01T18:01:17.965Z,10.00
2023-03-01T18:03:47.561Z,9.88
2023-03-01T18:06:34.181Z,10.48
2023-03-01T18:09:02.296Z,9.38
2023-03-01T18:11:30.320Z,9.77
2023-03-01T18:13:58.282Z,9.27
2023-03-01T18:16:26.469Z,10.10
2023-03-01T18:18:55.633Z,9.25
2023-03-01T18:21:24.104Z,9.77
2023-03-01T18:23:51.935Z,10.10
2023-03-01T18:26:22.271Z,9.13
2023-03-01T18:28:51.618Z,9.85
2023-03-01T18:31:22.343Z,9.85
2023-03-01T18:33:52.447Z,11.73
2023-03-01T18:36:22.358Z,11.25
2023-03-01T18:38:50.364Z,9.90
2023-03-01T18:41:18.442Z,10.68
2023-03-01T18:43:46.405Z,10.45
2023-03-01T18:46:14.287Z,9.55
2023-03-01T18:48:42.304Z,9.75
2023-03-01T18:51:14.317Z,9.93
2023-03-01T18:53:42.265Z,9.20
2023-03-01T18:56:10.775Z,9.55
2023-03-01T18:58:38.739Z,10.25
2023-03-01T19:01:08.431Z,9.48
2023-03-01T19:03:36.511Z,9.45
2023-03-01T19:06:05.245Z,9.75
2023-03-01T19:08:34.614Z,10.13
2023-03-01T19:11:21.943Z,12.65
2023-03-01T19:13:51.882Z,13.23
2023-03-01T19:16:21.413Z,9.63
2023-03-01T19:18:54.565Z,10.50
2023-03-01T19:21:25.254Z,10.05
2023-03-01T19:23:53.196Z,9.05
2023-03-01T19:26:22.507Z,9.90
2023-03-01T19:28:50.830Z,8.20
2023-03-01T19:31:20.257Z,8.43
2023-03-01T19:33:48.166Z,8.65
2023-03-01T19:36:16.112Z,7.40
2023-03-01T19:38:44.120Z,7.68
2023-03-01T19:41:16.925Z,7.70
2023-03-01T19:43:45.310Z,7.20
2023-03-01T19:46:15.025Z,6.10
2023-03-01T19:48:44.760Z,6.35
2023-03-01T19:51:12.890Z,6.45
2023-03-01T19:53:41.362Z,5.13
2023-03-01T19:56:09.913Z,6.32
2023-03-01T19:58:38.696Z,5.53
2023-03-01T20:01:14.350Z,6.30
2023-03-01T20:03:42.391Z,5.63
2023-03-01T20:06:11.833Z,5.28
2023-03-01T20:08:39.866Z,4.90
2023-03-01T20:11:10.320Z,4.93
2023-03-01T20:13:38.605Z,4.55
2023-03-01T20:16:07.267Z,4.47
2023-03-01T20:18:35.711Z,3.67
2023-03-01T20:21:09.240Z,3.40
2023-03-01T20:23:46.504Z,5.90
2023-03-01T20:26:19.183Z,3.83
2023-03-01T20:28:48.330Z,4.22
2023-03-01T20:31:18.068Z,3.70
2023-03-01T20:33:46.632Z,3.22
2023-03-01T20:36:15.428Z,2.40
2023-03-01T20:38:43.564Z,3.15
2023-03-01T20:41:12.752Z,2.67
2023-03-01T20:43:43.040Z,2.92
2023-03-01T20:48:44.159Z,2.88
2023-03-01T20:51:14.336Z,3.10
2023-03-01T20:53:42.888Z,3.05
2023-03-01T20:56:11.851Z,3.15
2023-03-01T20:58:40.343Z,3.30
2023-03-01T21:01:12.262Z,2.78
2023-03-01T21:03:42.113Z,3.78
2023-03-01T21:06:10.481Z,3.00
2023-03-01T21:08:38.714Z,2.72
2023-03-01T21:11:07.435Z,4.47
2023-03-01T21:13:35.934Z,3.67
2023-03-01T21:16:08.062Z,3.15
2023-03-01T21:18:36.977Z,3.35
2023-03-01T21:21:09.319Z,2.72
2023-03-01T21:23:38.097Z,2.97
2023-03-01T21:26:07.359Z,2.90
2023-03-01T21:28:35.756Z,2.42
2023-03-01T21:31:07.336Z,2.80
2023-03-01T21:33:35.905Z,2.20
2023-03-01T21:36:05.426Z,2.45
2023-03-01T21:38:37.344Z,2.20
2023-03-01T21:41:09.862Z,2.25
2023-03-01T21:43:38.451Z,2.90
2023-03-01T21:46:07.482Z,2.38
2023-03-01T21:48:35.474Z,2.50
2023-03-01T21:51:23.123Z,2.75
2023-03-01T21:53:51.116Z,2.30
2023-03-01T21:56:20.681Z,2.85
2023-03-01T21:58:48.777Z,2.40
2023-03-01T22:01:17.984Z,2.63
2023-03-01T22:04:04.615Z,2.67
2023-03-01T22:06:35.080Z,2.40
2023-03-01T22:09:06.773Z,2.47
2023-03-01T22:11:35.864Z,2.33
2023-03-01T22:14:04.926Z,2.25
2023-03-01T22:16:34.128Z,2.33
2023-03-01T22:19:02.526Z,2.20
2023-03-01T22:21:30.427Z,2.40
2023-03-01T22:23:58.247Z,2.15
2023-03-01T22:26:26.099Z,2.50
2023-03-01T22:28:56.061Z,2.42
2023-03-01T22:31:24.524Z,2.90
2023-03-01T22:33:53.002Z,2.30
2023-03-01T22:36:21.102Z,2.65
2023-03-01T22:38:49.424Z,2.70
2023-03-01T22:41:17.288Z,2.40
2023-03-01T22:43:45.118Z,2.38
2023-03-01T22:46:17.245Z,2.17
2023-03-01T22:48:45.619Z,2.55
2023-03-01T22:51:23.856Z,3.03
2023-03-01T22:53:51.731Z,2.55
2023-03-01T22:56:21.507Z,2.40
2023-03-01T22:58:49.327Z,2.38
2023-03-01T23:01:19.079Z,2.15
2023-03-01T23:03:47.385Z,2.03
2023-03-01T23:06:15.727Z,2.35
2023-03-01T23:08:44.130Z,2.05
2023-03-01T23:11:15.959Z,2.15
2023-03-01T23:13:44.134Z,2.00
2023-03-01T23:16:12.875Z,2.20
2023-03-01T23:18:41.014Z,1.92
2023-03-01T23:21:09.865Z,1.83
2023-03-01T23:23:37.723Z,2.00
2023-03-01T23:26:05.596Z,1.45
2023-03-01T23:28:33.966Z,1.67
2023-03-01T23:31:03.329Z,1.80
2023-03-01T23:33:37.848Z,2.03
2023-03-01T23:36:15.633Z,2.10
2023-03-01T23:38:43.438Z,1.77
2023-03-01T23:41:15.508Z,1.50
2023-03-01T23:43:47.252Z,1.73
2023-03-01T23:46:15.880Z,1.63
2023-03-01T23:48:44.463Z,1.40
2023-03-01T23:51:12.484Z,1.77
2023-03-01T23:53:41.174Z,1.40
2023-03-01T23:56:10.576Z,1.45
2023-03-01T23:58:38.389Z,1.80
